Williams Lake, Canada
Current Conditions -  °F | °C
As of 2:00 AM on Friday 21 Nov 2014 (Local Time) from CYWL Reporting Station
Broken Clouds Broken Clouds  
Wind Chill: 30°   Ceiling: 8000
Heat Index: 37°   Visibility: 15mi
Dew Point: 30°   Wind: 10mph
Humidity: 75%   Direction: 120°ESE
Pressure: 29.65"   Gusts: NA
Location:  52.13°N, 122.14°W
Report Text: CYWL 211000Z 12009KT 15SM BKN080 03/M01 A2965 RMK AC5 SLP066
Loading
Personal Weather Stations






























Interactive Weather Map New forecast layout! Learn more

10-Day Weather Forecast

Advertisements
Track Severe Weather on mobile